createdAt,value
2023-01-01T00:00:43.925Z,1.00
2023-01-01T00:03:10.993Z,1.00
2023-01-01T00:10:35.735Z,1.00
2023-01-01T00:13:02.681Z,1.00
2023-01-01T00:15:29.725Z,1.00
2023-01-01T00:17:57.782Z,1.00
2023-01-01T00:20:27.635Z,1.00
2023-01-01T00:22:58.547Z,1.00
2023-01-01T00:25:25.610Z,1.00
2023-01-01T00:27:52.649Z,1.00
2023-01-01T00:30:19.740Z,1.00
2023-01-01T00:32:54.721Z,1.00
2023-01-01T00:35:24.986Z,1.00
2023-01-01T00:37:52.995Z,1.00
2023-01-01T13:26:20.771Z,1.00
2023-01-01T13:28:59.431Z,1.00
2023-01-01T13:31:38.435Z,1.00
2023-01-01T13:34:30.302Z,1.00
2023-01-01T14:37:01.587Z,1.00
2023-01-01T14:39:34.632Z,1.00
2023-01-01T14:42:21.873Z,1.00
2023-01-01T14:44:50.716Z,1.00
2023-01-01T14:47:35.033Z,1.00
2023-01-01T14:50:23.996Z,1.00
2023-01-01T14:52:56.296Z,1.00
2023-01-01T14:55:26.592Z,1.00
2023-01-01T14:57:59.162Z,1.00
2023-01-01T15:00:31.482Z,1.00
2023-01-01T15:03:28.131Z,1.00
2023-01-01T15:06:03.388Z,1.00
2023-01-01T15:08:30.772Z,1.00
2023-01-01T15:10:57.995Z,1.00
2023-01-01T15:13:27.796Z,1.00
2023-01-01T15:15:57.516Z,1.00
2023-01-01T15:18:42.455Z,1.00
2023-01-01T15:21:16.566Z,1.00
2023-01-01T15:23:56.126Z,1.00
2023-01-01T15:26:43.374Z,1.00
2023-01-01T15:29:17.921Z,1.00
2023-01-01T15:31:50.189Z,1.00
2023-01-01T15:34:27.825Z,1.00
2023-01-01T15:36:57.337Z,1.00
2023-01-01T15:39:24.420Z,1.00
2023-01-01T15:41:52.704Z,1.00
2023-01-01T15:44:36.446Z,1.00
2023-01-01T15:47:14.350Z,1.00
2023-01-01T15:49:41.462Z,1.00
2023-01-01T15:52:27.023Z,1.00
2023-01-01T15:54:54.142Z,1.00
2023-01-01T15:57:23.738Z,1.00
2023-01-01T15:59:53.679Z,1.00
2023-01-01T16:02:33.416Z,20.70
2023-01-01T16:05:00.730Z,46.20
2023-01-01T16:07:28.175Z,81.30
2023-01-01T16:09:58.174Z,99.90
2023-01-01T16:12:25.649Z,99.90
2023-01-01T18:11:49.278Z,85.40
2023-01-01T18:14:20.937Z,99.90
2023-01-01T18:16:49.793Z,1.00
2023-01-01T18:19:17.157Z,1.00
2023-01-01T18:21:44.227Z,99.90
2023-01-01T18:24:15.966Z,99.90
2023-01-01T18:26:43.469Z,91.00
2023-01-01T18:29:10.560Z,14.30
2023-01-01T18:31:37.577Z,99.90
2023-01-01T18:34:06.663Z,1.00
2023-01-01T18:36:35.135Z,1.00
2023-01-01T18:39:09.533Z,1.00
2023-01-01T18:41:48.536Z,1.00
2023-01-01T18:44:28.390Z,1.00
2023-01-01T18:47:04.111Z,1.00
2023-01-01T18:49:32.615Z,1.00
2023-01-01T18:52:17.173Z,1.00
2023-01-01T18:54:44.492Z,1.00
2023-01-01T18:57:23.643Z,1.00
2023-01-01T18:59:59.475Z,1.00
2023-01-01T19:02:42.668Z,1.00
2023-01-01T19:05:31.636Z,1.00
2023-01-01T19:08:07.814Z,1.00
2023-01-01T19:10:40.653Z,1.00
2023-01-01T19:13:32.932Z,1.00
2023-01-01T19:16:24.366Z,1.00
2023-01-01T19:18:52.966Z,1.00
2023-01-01T19:21:23.784Z,1.00
2023-01-01T19:23:54.521Z,1.00
2023-01-01T19:26:28.112Z,16.50
2023-01-01T19:29:17.188Z,53.90
2023-01-01T19:31:46.629Z,99.90
2023-01-01T19:34:13.699Z,99.90
2023-01-01T19:36:40.792Z,99.90
2023-01-01T19:39:08.540Z,99.90
2023-01-01T19:41:36.196Z,99.90
2023-01-01T19:44:06.073Z,99.90
2023-01-01T19:46:38.997Z,92.10
2023-01-01T19:49:06.096Z,27.70
2023-01-01T19:51:33.020Z,52.40
2023-01-01T19:53:59.964Z,99.90
2023-01-01T19:56:27.081Z,99.90
2023-01-01T19:58:54.041Z,99.90
2023-01-01T20:03:54.709Z,50.50
2023-01-01T20:06:23.473Z,55.70
2023-01-01T20:11:17.968Z,28.70
2023-01-01T20:13:44.925Z,63.40
2023-01-01T20:16:11.878Z,92.20
2023-01-01T20:18:38.942Z,99.90
2023-01-01T20:21:26.591Z,99.90
2023-01-01T20:23:55.307Z,99.90
2023-01-01T20:26:23.672Z,99.60
2023-01-01T20:31:37.632Z,1.00
2023-01-01T20:36:50.581Z,99.90
2023-01-01T20:39:17.537Z,99.90
2023-01-01T20:41:44.528Z,99.90
2023-01-01T20:49:06.297Z,99.90
2023-01-01T20:51:33.727Z,99.90
2023-01-01T20:54:00.868Z,99.90
2023-01-01T20:56:27.963Z,99.90
2023-01-01T20:59:00.084Z,99.90
2023-01-01T21:01:30.584Z,99.90
2023-01-01T21:03:57.643Z,99.80
2023-01-01T21:06:25.046Z,63.50
2023-01-01T21:08:52.959Z,57.70
2023-01-01T21:16:23.424Z,99.90
2023-01-01T21:21:23.362Z,99.90
2023-01-01T21:23:52.977Z,99.90
2023-01-01T21:26:31.912Z,99.90
2023-01-01T21:29:08.418Z,99.90
2023-01-01T21:31:38.149Z,99.90
2023-01-01T21:34:23.470Z,99.90
2023-01-01T21:36:51.135Z,99.90
2023-01-01T21:39:29.722Z,99.90
2023-01-01T21:42:09.148Z,99.30
2023-01-01T21:44:36.078Z,76.50
2023-01-01T21:47:08.959Z,61.40
2023-01-01T21:49:37.357Z,86.60
2023-01-01T21:52:19.254Z,62.60
2023-01-01T21:54:48.273Z,68.50
2023-01-01T21:57:19.852Z,90.80
2023-01-01T21:59:47.533Z,90.50
2023-01-01T22:02:14.592Z,61.10
2023-01-01T22:04:49.078Z,41.70
2023-01-01T22:10:21.577Z,48.50
2023-01-01T22:12:51.327Z,66.30
2023-01-01T22:15:39.602Z,63.00
2023-01-01T22:18:09.583Z,62.90
2023-01-01T22:20:39.737Z,65.90
2023-01-01T22:23:42.026Z,47.50
2023-01-01T22:26:27.802Z,45.60
2023-01-01T22:29:04.062Z,29.60
2023-01-01T22:31:33.329Z,67.60
2023-01-01T22:34:04.404Z,46.60
2023-01-01T22:36:36.376Z,57.80
2023-01-01T22:39:13.435Z,43.90
2023-01-01T22:41:42.291Z,43.60
2023-01-01T22:44:11.665Z,65.50
2023-01-01T22:46:42.231Z,73.00
2023-01-01T22:49:19.962Z,61.70
2023-01-01T22:51:47.499Z,73.00
2023-01-01T22:54:14.459Z,89.40
2023-01-01T22:56:41.402Z,93.70
2023-01-01T22:59:08.383Z,99.90
2023-01-01T23:01:35.436Z,99.90
2023-01-01T23:04:02.508Z,99.90
2023-01-01T23:06:29.779Z,99.90
2023-01-01T23:08:57.063Z,99.20
2023-01-01T23:11:24.325Z,99.90
2023-01-01T23:14:10.366Z,99.90
2023-01-01T23:16:37.519Z,99.90
2023-01-01T23:19:05.418Z,99.90
2023-01-01T23:21:34.292Z,99.90
2023-01-01T23:24:04.699Z,99.90
2023-01-01T23:26:31.933Z,99.90
2023-01-01T23:28:58.922Z,99.90
2023-01-01T23:31:28.102Z,99.90
2023-01-01T23:33:56.527Z,99.90
2023-01-01T23:36:25.675Z,99.90
2023-01-01T23:38:52.609Z,99.90
2023-01-01T23:41:19.582Z,99.90
2023-01-01T23:43:46.544Z,99.90
2023-01-01T23:46:14.513Z,99.90
2023-01-01T23:48:46.512Z,99.90
2023-01-01T23:51:14.276Z,99.90
2023-01-01T23:53:41.235Z,99.90
2023-01-01T23:56:08.312Z,99.90
2023-01-01T23:58:35.266Z,99.90
